Time;durP1;ratioP1;P1;durP2;ratioP2;P2;SDS_P1;SDS_P2;PMS_P1;PMS_P2;Temp;Humidity;BMP_temperature;BMP_pressure;BME280_temperature;BME280_humidity;BME280_pressure;Samples;Min_cycle;Max_cycle;Signal;HPM_P1;HPM_P2
2021/12/20 00:00:49;;;;;;;16.13;7.47;;;6.90;83.00;;;;;;5038098;28;20025;-84
2021/12/20 00:03:15;;;;;;;11.55;6.40;;;6.90;82.70;;;;;;5038832;28;20044;-85
2021/12/20 00:05:41;;;;;;;13.20;6.47;;;6.90;82.70;;;;;;5036999;28;20030;-85
2021/12/20 00:08:07;;;;;;;10.95;5.80;;;6.80;83.00;;;;;;5039659;28;20400;-86
2021/12/20 00:10:33;;;;;;;11.00;6.65;;;6.80;82.70;;;;;;5036999;28;20408;-85
2021/12/20 00:12:59;;;;;;;11.05;6.45;;;6.70;83.00;;;;;;5038276;28;20029;-85
2021/12/20 00:15:25;;;;;;;11.68;5.28;;;6.60;83.30;;;;;;5036989;28;20407;-85
2021/12/20 00:18:08;;;;;;;15.93;7.25;;;6.60;83.60;;;;;;5036861;28;20037;-85
2021/12/20 00:20:33;;;;;;;14.30;6.60;;;6.50;83.70;;;;;;5043784;28;20121;-85
2021/12/20 00:22:59;;;;;;;10.23;5.72;;;6.60;83.60;;;;;;5036717;28;20053;-85
2021/12/20 00:25:25;;;;;;;11.55;5.68;;;6.60;83.50;;;;;;5039300;28;20483;-84
2021/12/20 00:27:50;;;;;;;10.63;5.80;;;6.60;83.40;;;;;;5036520;28;20046;-84
2021/12/20 00:30:17;;;;;;;9.07;5.20;;;6.50;83.70;;;;;;5039569;28;20097;-84
2021/12/20 00:32:42;;;;;;;8.15;5.30;;;6.50;83.60;;;;;;5055198;28;20020;-85
2021/12/20 00:35:08;;;;;;;14.38;6.43;;;6.60;83.40;;;;;;5048013;28;20106;-85
2021/12/20 00:40:20;;;;;;;8.15;5.07;;;6.60;83.30;;;;;;5035966;28;20167;-85
2021/12/20 00:42:59;;;;;;;11.35;6.50;;;6.60;83.40;;;;;;5039143;28;20021;-85
2021/12/20 00:45:34;;;;;;;10.15;6.65;;;6.70;83.20;;;;;;5036436;28;20075;-85
2021/12/20 00:47:59;;;;;;;8.75;5.70;;;6.70;83.40;;;;;;5039151;28;20026;-83
2021/12/20 00:50:26;;;;;;;11.55;6.38;;;6.60;83.20;;;;;;5036523;28;20030;-84
2021/12/20 00:52:52;;;;;;;10.80;5.72;;;6.60;83.60;;;;;;5039477;28;20024;-84
2021/12/20 00:55:20;;;;;;;10.52;5.30;;;6.60;83.50;;;;;;5036323;28;20440;-86
2021/12/20 00:57:50;;;;;;;7.80;5.45;;;6.60;83.20;;;;;;5036005;28;20070;-84
2021/12/20 01:00:22;;;;;;;10.45;5.55;;;6.60;83.20;;;;;;5038586;28;20044;-85
2021/12/20 01:02:48;;;;;;;12.20;6.15;;;6.60;83.40;;;;;;5054703;28;20029;-85
2021/12/20 01:05:14;;;;;;;10.25;5.82;;;6.60;83.30;;;;;;5057746;28;20094;-84
2021/12/20 01:07:40;;;;;;;9.98;5.57;;;6.70;83.20;;;;;;5054603;28;20029;-84
2021/12/20 01:10:08;;;;;;;10.07;5.45;;;6.70;83.20;;;;;;5057901;28;20032;-84
2021/12/20 01:12:47;;;;;;;14.93;6.30;;;6.70;83.00;;;;;;5055570;28;20013;-85
2021/12/20 01:15:24;;;;;;;10.98;5.30;;;6.70;83.20;;;;;;5038956;28;20025;-84
2021/12/20 01:17:52;;;;;;;12.07;5.03;;;6.70;83.50;;;;;;5035979;28;20029;-85
2021/12/20 01:20:48;;;;;;;12.82;6.95;;;6.70;83.10;;;;;;5059888;28;20066;-84
2021/12/20 01:23:14;;;;;;;9.10;4.50;;;6.70;83.00;;;;;;5063092;28;20442;-85
2021/12/20 01:25:40;;;;;;;11.57;5.65;;;6.80;82.60;;;;;;5054103;28;20021;-84
2021/12/20 01:28:07;;;;;;;12.23;5.72;;;6.80;82.70;;;;;;5042538;28;20396;-85
2021/12/20 01:30:34;;;;;;;11.65;5.53;;;6.90;83.00;;;;;;5037512;28;20029;-84
2021/12/20 01:32:59;;;;;;;10.88;6.50;;;7.00;82.60;;;;;;5050964;28;20403;-84
2021/12/20 01:35:27;;;;;;;9.10;5.72;;;6.90;82.10;;;;;;5055110;28;20064;-85
2021/12/20 01:37:54;;;;;;;11.70;5.82;;;6.90;82.70;;;;;;5047644;28;20152;-84
2021/12/20 01:40:21;;;;;;;12.45;6.85;;;6.90;82.80;;;;;;5036062;28;20507;-84
2021/12/20 01:42:49;;;;;;;10.55;5.97;;;6.90;82.70;;;;;;5035509;28;20025;-84
2021/12/20 01:45:18;;;;;;;13.55;6.00;;;6.90;82.40;;;;;;5038498;28;20018;-85
2021/12/20 01:47:49;;;;;;;14.50;7.82;;;7.00;82.40;;;;;;5035188;28;20111;-85
2021/12/20 01:50:23;;;;;;;12.68;6.07;;;7.00;82.50;;;;;;5037981;28;20423;-84
2021/12/20 01:52:48;;;;;;;11.70;5.35;;;7.00;82.20;;;;;;5035492;28;20061;-84
2021/12/20 01:55:18;;;;;;;12.20;6.22;;;7.00;82.50;;;;;;5037976;28;20028;-85
2021/12/20 01:57:46;;;;;;;14.95;6.68;;;7.00;82.50;;;;;;5035335;28;20116;-85
2021/12/20 02:00:24;;;;;;;9.43;4.97;;;7.00;82.60;;;;;;5035832;28;20025;-85
2021/12/20 02:02:57;;;;;;;11.18;5.85;;;7.10;82.60;;;;;;5049802;28;20123;-84
2021/12/20 02:05:34;;;;;;;11.60;6.13;;;7.10;82.10;;;;;;5054868;28;20070;-84
2021/12/20 02:08:03;;;;;;;14.35;6.40;;;7.00;82.30;;;;;;5057340;28;20036;-84
2021/12/20 02:10:30;;;;;;;9.50;5.80;;;7.00;82.30;;;;;;5055073;28;20032;-84
2021/12/20 02:12:56;;;;;;;10.27;5.70;;;6.80;82.00;;;;;;5055496;28;20075;-84
2021/12/20 02:15:22;;;;;;;9.82;5.47;;;6.70;82.40;;;;;;5054948;28;20025;-85
2021/12/20 02:17:48;;;;;;;8.73;5.07;;;6.80;82.90;;;;;;5057567;28;20055;-84
2021/12/20 02:20:26;;;;;;;12.43;6.57;;;6.70;82.30;;;;;;5047945;28;20068;-84
2021/12/20 02:23:17;;;;;;;10.00;6.07;;;6.80;82.60;;;;;;5034601;28;20136;-84
2021/12/20 02:25:43;;;;;;;9.88;5.90;;;6.80;82.50;;;;;;5048268;28;20040;-84
2021/12/20 02:28:12;;;;;;;10.32;5.93;;;6.80;82.50;;;;;;5053467;28;20391;-84
2021/12/20 02:36:55;;;;;;;11.25;5.60;;;6.80;82.40;;;;;;5037542;28;20022;-84
2021/12/20 02:39:43;;;;;;;9.45;5.05;;;6.50;83.00;;;;;;5012552;28;20141;-84
2021/12/20 02:42:12;;;;;;;10.68;5.78;;;6.60;83.50;;;;;;5027370;28;20038;-85
2021/12/20 02:44:52;;;;;;;8.40;5.30;;;6.70;83.30;;;;;;5033397;28;20037;-85
2021/12/20 02:47:28;;;;;;;9.23;5.65;;;6.70;82.60;;;;;;5037908;28;20455;-85
2021/12/20 02:49:55;;;;;;;11.45;5.47;;;6.80;82.60;;;;;;5038215;28;20021;-84
2021/12/20 02:52:20;;;;;;;8.43;4.88;;;6.70;82.70;;;;;;5041575;28;20026;-85
2021/12/20 02:54:46;;;;;;;9.43;5.55;;;6.70;82.80;;;;;;5038842;28;20029;-84
2021/12/20 02:57:22;;;;;;;12.40;5.18;;;6.50;82.80;;;;;;5039096;28;20025;-83
2021/12/20 02:59:47;;;;;;;10.45;4.80;;;6.40;82.90;;;;;;5039989;28;20088;-85
2021/12/20 03:02:13;;;;;;;10.57;5.47;;;6.50;83.20;;;;;;5041411;28;20686;-84
2021/12/20 03:04:40;;;;;;;10.07;5.50;;;6.60;82.80;;;;;;5061243;28;20029;-85
2021/12/20 03:07:09;;;;;;;9.95;6.07;;;6.70;82.70;;;;;;5057320;28;20037;-83
2021/12/20 03:09:39;;;;;;;14.35;5.15;;;6.70;82.60;;;;;;5041115;28;20036;-84
2021/12/20 03:12:08;;;;;;;11.98;6.00;;;6.80;82.50;;;;;;5036907;28;20030;-85
2021/12/20 03:14:43;;;;;;;8.25;4.95;;;6.80;82.20;;;;;;5040170;28;20021;-84
2021/12/20 03:17:10;;;;;;;10.85;5.63;;;6.80;82.20;;;;;;5038603;28;20395;-83
2021/12/20 03:19:37;;;;;;;8.50;4.85;;;6.80;81.80;;;;;;5042742;28;20060;-84
2021/12/20 03:22:04;;;;;;;12.80;4.90;;;6.60;82.00;;;;;;5040913;28;20070;-86
2021/12/20 03:24:29;;;;;;;10.80;5.75;;;6.70;82.40;;;;;;5038098;28;20032;-84
2021/12/20 03:26:55;;;;;;;10.77;5.28;;;6.70;82.40;;;;;;5040814;28;20073;-85
2021/12/20 03:29:21;;;;;;;11.00;5.95;;;6.80;82.10;;;;;;5037955;28;20048;-84
2021/12/20 03:31:50;;;;;;;10.77;5.70;;;6.80;82.20;;;;;;5039961;28;20018;-84
2021/12/20 03:34:17;;;;;;;9.07;4.88;;;6.70;81.90;;;;;;5055173;28;20115;-84
2021/12/20 03:36:43;;;;;;;11.27;5.22;;;6.60;82.00;;;;;;5057591;28;20494;-84
2021/12/20 03:39:09;;;;;;;10.13;5.50;;;6.50;82.50;;;;;;5060659;28;20059;-85
2021/12/20 03:41:36;;;;;;;10.27;6.07;;;6.50;82.20;;;;;;5057589;28;20041;-85
2021/12/20 03:44:02;;;;;;;12.43;5.40;;;6.40;82.50;;;;;;5044564;28;20037;-85
2021/12/20 03:46:28;;;;;;;11.68;5.72;;;6.50;82.40;;;;;;5037564;28;20036;-85
2021/12/20 03:48:56;;;;;;;12.32;5.82;;;6.50;82.50;;;;;;5040010;28;20662;-85
2021/12/20 03:51:22;;;;;;;13.07;5.72;;;6.50;82.50;;;;;;5037595;28;20025;-85
2021/12/20 03:53:48;;;;;;;7.53;5.03;;;6.60;82.30;;;;;;5036120;28;20121;-84
2021/12/20 03:56:13;;;;;;;11.18;6.43;;;6.60;82.30;;;;;;5038816;28;20057;-84
2021/12/20 03:58:39;;;;;;;13.77;6.35;;;6.70;82.30;;;;;;5035626;28;20029;-84
2021/12/20 04:01:10;;;;;;;11.73;5.60;;;6.70;82.20;;;;;;5040257;28;20442;-85
2021/12/20 04:03:36;;;;;;;12.93;6.45;;;6.60;82.40;;;;;;5037050;28;20036;-84
2021/12/20 04:06:07;;;;;;;7.90;4.40;;;6.50;82.00;;;;;;5039736;28;20756;-84
2021/12/20 04:08:34;;;;;;;8.02;5.75;;;6.40;81.70;;;;;;5037297;28;20446;-85
2021/12/20 04:11:00;;;;;;;11.18;5.97;;;6.30;81.90;;;;;;5036739;28;20053;-84
2021/12/20 04:13:27;;;;;;;14.43;5.97;;;6.30;82.30;;;;;;5040108;28;20116;-84
2021/12/20 04:15:53;;;;;;;8.45;5.15;;;6.50;82.40;;;;;;5037140;28;20024;-84
2021/12/20 04:18:19;;;;;;;9.98;5.93;;;6.30;82.30;;;;;;5039763;28;20434;-84
2021/12/20 04:20:45;;;;;;;8.43;5.18;;;6.40;82.10;;;;;;5069914;28;20730;-84
2021/12/20 04:23:11;;;;;;;11.73;5.60;;;6.50;81.80;;;;;;5065597;28;20033;-85
2021/12/20 04:25:37;;;;;;;10.23;6.20;;;6.50;81.30;;;;;;5036997;28;20028;-85
2021/12/20 04:28:03;;;;;;;11.30;5.45;;;6.40;81.70;;;;;;5035368;28;20454;-84
2021/12/20 04:30:31;;;;;;;9.00;5.97;;;6.40;81.80;;;;;;5039458;28;20021;-84
2021/12/20 04:32:56;;;;;;;6.45;3.95;;;6.20;81.00;;;;;;5036944;28;20112;-85
2021/12/20 04:35:22;;;;;;;8.73;5.10;;;6.20;81.60;;;;;;5039605;28;20061;-85
2021/12/20 04:37:49;;;;;;;7.90;4.72;;;6.00;81.40;;;;;;5036708;28;20029;-84
2021/12/20 04:40:21;;;;;;;10.35;5.25;;;6.10;81.80;;;;;;5039359;28;20033;-84
2021/12/20 04:42:49;;;;;;;10.60;5.10;;;6.20;81.60;;;;;;5036177;28;20033;-85
2021/12/20 04:45:48;;;;;;;;;;;;;;;;;;;;;
2021/12/20 04:48:14;;;;;;;8.50;5.30;;;6.40;81.40;;;;;;5037733;28;20049;-84
2021/12/20 04:50:40;;;;;;;10.85;5.55;;;6.30;80.90;;;;;;5049888;28;20056;-85
2021/12/20 04:53:06;;;;;;;9.95;5.28;;;6.30;81.10;;;;;;5057370;28;20028;-84
2021/12/20 04:55:33;;;;;;;11.15;5.38;;;6.30;80.90;;;;;;5036654;28;20036;-84
2021/12/20 04:58:03;;;;;;;9.65;4.60;;;6.30;81.00;;;;;;5038402;28;20033;-84
2021/12/20 05:00:33;;;;;;;7.50;4.75;;;6.30;80.90;;;;;;5036410;28;20033;-84
2021/12/20 05:02:59;;;;;;;11.32;5.50;;;6.30;81.20;;;;;;5054696;28;20037;-84
2021/12/20 05:05:28;;;;;;;10.75;6.32;;;6.30;81.50;;;;;;5055724;28;20426;-84
2021/12/20 05:07:54;;;;;;;12.95;6.60;;;6.30;81.30;;;;;;5055907;28;20040;-84
2021/12/20 05:10:33;;;;;;;7.28;4.60;;;6.30;81.10;;;;;;5056780;28;20035;-85
2021/12/20 05:13:02;;;;;;;9.32;5.53;;;6.30;81.10;;;;;;5034983;28;20026;-84
2021/12/20 05:15:28;;;;;;;12.00;5.82;;;6.20;81.50;;;;;;5038708;28;20080;-84
2021/12/20 05:17:55;;;;;;;13.48;6.10;;;6.30;81.60;;;;;;5035771;28;20021;-83
2021/12/20 05:20:21;;;;;;;9.45;5.25;;;6.30;81.20;;;;;;5064630;28;20039;-84
2021/12/20 05:22:48;;;;;;;12.93;5.57;;;6.40;81.00;;;;;;5036456;28;20026;-84
2021/12/20 05:25:25;;;;;;;10.20;5.53;;;6.40;80.70;;;;;;5036722;28;20033;-85
2021/12/20 05:27:52;;;;;;;9.75;6.22;;;6.40;80.50;;;;;;5036762;28;20706;-84
2021/12/20 05:30:18;;;;;;;10.75;5.75;;;6.20;80.70;;;;;;5035657;28;20021;-84
2021/12/20 05:32:45;;;;;;;11.75;6.75;;;6.20;81.00;;;;;;5038624;28;20014;-84
2021/12/20 05:35:13;;;;;;;16.58;5.88;;;6.20;81.10;;;;;;5035517;28;20105;-83
2021/12/20 05:37:40;;;;;;;12.02;5.20;;;6.20;81.10;;;;;;5038587;28;20038;-85
2021/12/20 05:40:07;;;;;;;10.00;6.07;;;6.20;80.70;;;;;;5035272;28;20036;-84
2021/12/20 05:42:36;;;;;;;13.95;5.95;;;6.20;81.00;;;;;;5036886;28;20022;-85
2021/12/20 05:45:03;;;;;;;11.82;5.82;;;6.20;80.80;;;;;;5044239;28;20043;-85
2021/12/20 05:47:29;;;;;;;10.05;5.65;;;6.30;80.70;;;;;;5055021;28;20399;-82
2021/12/20 05:49:55;;;;;;;13.23;6.57;;;6.30;80.70;;;;;;5057419;28;20083;-87
2021/12/20 05:52:21;;;;;;;9.98;5.57;;;6.40;80.50;;;;;;5056794;28;20136;-88
2021/12/20 05:54:47;;;;;;;9.63;4.75;;;6.40;80.10;;;;;;5053004;28;20415;-83
2021/12/20 05:57:12;;;;;;;11.48;6.35;;;6.40;80.20;;;;;;5035039;28;20021;-81
2021/12/20 05:59:40;;;;;;;10.93;5.68;;;6.30;80.10;;;;;;5051067;28;20032;-83
2021/12/20 06:02:06;;;;;;;14.65;7.32;;;6.20;79.80;;;;;;5052377;28;20043;-84
2021/12/20 06:04:32;;;;;;;12.25;6.30;;;6.20;80.50;;;;;;5035143;28;20085;-82
2021/12/20 06:06:58;;;;;;;12.10;6.13;;;6.30;80.10;;;;;;5035473;28;20026;-85
2021/12/20 06:09:23;;;;;;;13.32;7.00;;;6.30;80.20;;;;;;5034864;28;20022;-87
2021/12/20 06:11:49;;;;;;;15.50;6.47;;;6.30;79.60;;;;;;5036141;28;20112;-92
2021/12/20 06:14:16;;;;;;;12.85;6.75;;;6.30;80.20;;;;;;5034462;28;20028;-81
2021/12/20 06:16:42;;;;;;;12.10;6.22;;;6.30;80.00;;;;;;5035632;28;20030;-82
2021/12/20 06:19:08;;;;;;;9.88;6.25;;;6.20;79.50;;;;;;5047505;28;20032;-87
2021/12/20 06:21:34;;;;;;;26.38;14.10;;;6.10;80.10;;;;;;5053238;28;20017;-80
2021/12/20 06:24:00;;;;;;;15.25;7.68;;;6.20;80.00;;;;;;5055100;28;20031;-82
2021/12/20 06:26:26;;;;;;;11.57;6.50;;;6.20;79.70;;;;;;5035523;28;20157;-83
2021/12/20 06:28:52;;;;;;;14.05;7.28;;;6.30;80.00;;;;;;5036087;28;20057;-83
2021/12/20 06:31:18;;;;;;;19.02;9.57;;;6.20;79.60;;;;;;5053415;28;20025;-83
2021/12/20 06:33:54;;;;;;;13.60;7.00;;;6.20;80.10;;;;;;5033735;28;20024;-83
2021/12/20 06:36:21;;;;;;;16.60;8.38;;;6.20;79.70;;;;;;5029114;28;20108;-84
2021/12/20 06:38:47;;;;;;;14.27;6.47;;;6.10;80.40;;;;;;5034366;28;20606;-84
2021/12/20 06:41:13;;;;;;;16.48;8.50;;;6.10;80.20;;;;;;5036058;28;20028;-84
2021/12/20 06:43:40;;;;;;;11.60;7.18;;;6.20;80.20;;;;;;5034579;28;20064;-84
2021/12/20 06:46:06;;;;;;;12.50;7.22;;;6.20;80.00;;;;;;5039901;28;20436;-86
2021/12/20 06:48:32;;;;;;;17.85;7.88;;;6.20;80.20;;;;;;5045308;28;20044;-84
2021/12/20 06:50:58;;;;;;;14.10;7.78;;;6.10;79.70;;;;;;5042657;28;20017;-85
2021/12/20 06:53:23;;;;;;;12.30;7.05;;;6.00;79.90;;;;;;5042788;28;20033;-84
2021/12/20 06:55:49;;;;;;;14.40;7.15;;;6.10;80.50;;;;;;5040486;28;20753;-83
2021/12/20 06:58:15;;;;;;;13.88;8.00;;;6.10;80.00;;;;;;5052395;28;20029;-78
2021/12/20 07:00:40;;;;;;;19.73;9.25;;;6.10;80.20;;;;;;5046598;28;20518;-81
2021/12/20 07:03:07;;;;;;;17.80;7.85;;;6.10;80.20;;;;;;5037290;28;20029;-80
2021/12/20 07:05:32;;;;;;;17.38;9.13;;;6.00;80.50;;;;;;5042608;28;20028;-78
2021/12/20 07:07:58;;;;;;;19.23;8.50;;;5.90;80.30;;;;;;5043702;28;20818;-80
2021/12/20 07:10:24;;;;;;;15.82;7.45;;;5.80;80.90;;;;;;5042180;28;20021;-80
2021/12/20 07:12:51;;;;;;;17.88;8.00;;;5.90;80.50;;;;;;5037120;28;20033;-80
2021/12/20 07:15:18;;;;;;;14.07;7.40;;;6.00;80.20;;;;;;5042804;28;20021;-80
2021/12/20 07:17:43;;;;;;;13.82;6.95;;;5.90;80.00;;;;;;5045119;28;20025;-80
2021/12/20 07:20:10;;;;;;;19.98;9.15;;;5.90;80.10;;;;;;5045878;28;20510;-80
2021/12/20 07:22:36;;;;;;;20.70;9.90;;;5.90;80.50;;;;;;5039951;28;20030;-80
2021/12/20 07:25:05;;;;;;;16.23;8.40;;;6.00;80.90;;;;;;5041968;28;20482;-80
2021/12/20 07:27:31;;;;;;;19.90;10.52;;;6.00;80.10;;;;;;5041716;28;20479;-80
2021/12/20 07:29:58;;;;;;;24.13;10.60;;;6.00;80.10;;;;;;5042910;28;20033;-80
2021/12/20 07:32:23;;;;;;;20.20;8.48;;;6.00;80.40;;;;;;5040237;28;20021;-80
2021/12/20 08:36:40;;;;;;;23.40;10.13;;;4.40;86.40;;;;;;5092539;28;20377;-82
2021/12/20 08:39:06;;;;;;;19.75;8.27;;;4.50;86.40;;;;;;5088330;28;20620;-79
2021/12/20 08:41:31;;;;;;;19.75;8.70;;;4.80;85.80;;;;;;5071927;28;20021;-78
2021/12/20 08:43:59;;;;;;;21.58;9.88;;;5.10;85.00;;;;;;5074594;28;20040;-78
2021/12/20 08:46:25;;;;;;;29.27;12.30;;;5.30;84.20;;;;;;5072170;28;20063;-78
2021/12/20 08:48:52;;;;;;;21.13;9.55;;;5.50;83.60;;;;;;5072013;28;20078;-79
2021/12/20 08:51:18;;;;;;;22.40;11.07;;;5.80;82.90;;;;;;5072144;28;20021;-78
2021/12/20 08:53:43;;;;;;;26.27;12.13;;;5.80;82.00;;;;;;5076329;28;20035;-79
2021/12/20 08:56:09;;;;;;;22.60;10.13;;;6.00;81.60;;;;;;5083582;28;20036;-79
2021/12/20 08:58:35;;;;;;;28.30;9.43;;;5.90;81.10;;;;;;5070749;28;20033;-80
2021/12/20 09:01:01;;;;;;;24.50;11.23;;;5.90;81.00;;;;;;5070495;28;20028;-79
2021/12/20 09:03:28;;;;;;;23.08;10.55;;;6.00;81.30;;;;;;5069927;28;20479;-79
2021/12/20 09:05:54;;;;;;;20.02;9.80;;;6.00;80.90;;;;;;5057765;28;20111;-85
2021/12/20 09:08:22;;;;;;;20.50;9.07;;;6.00;80.80;;;;;;5071490;28;20043;-79
2021/12/20 09:10:48;;;;;;;23.25;9.90;;;5.80;80.60;;;;;;5073792;28;20105;-80
2021/12/20 09:13:14;;;;;;;18.50;8.70;;;5.70;80.80;;;;;;5090282;28;20024;-79
2021/12/20 09:15:41;;;;;;;22.13;10.25;;;5.60;80.80;;;;;;5080108;28;20052;-78
2021/12/20 09:18:08;;;;;;;17.80;9.30;;;5.50;81.40;;;;;;5081442;28;20028;-78
2021/12/20 09:20:36;;;;;;;23.35;11.82;;;5.50;81.40;;;;;;5083657;28;20095;-78
2021/12/20 09:23:07;;;;;;;21.83;9.55;;;5.50;81.50;;;;;;5083521;28;20028;-79
2021/12/20 09:25:38;;;;;;;19.02;8.90;;;5.60;81.50;;;;;;5083884;28;20422;-79
2021/12/20 09:28:10;;;;;;;;;;;5.60;81.10;;;;;;5088291;28;20039;-84
2021/12/20 09:30:38;;;;;;;22.25;11.23;;;5.70;80.70;;;;;;5083451;28;19912;-80
2021/12/20 09:33:04;;;;;;;24.77;10.55;;;5.70;80.80;;;;;;5070809;28;20439;-81
2021/12/20 09:35:31;;;;;;;21.02;9.57;;;5.80;81.00;;;;;;5066356;28;20158;-80
2021/12/20 09:37:56;;;;;;;24.17;9.93;;;5.90;80.50;;;;;;5084712;28;20071;-80
2021/12/20 09:40:37;;;;;;;25.90;11.15;;;6.00;80.20;;;;;;5052427;28;20032;-80
2021/12/20 09:43:12;;;;;;;28.25;10.85;;;6.00;79.80;;;;;;5074023;28;20016;-80
2021/12/20 09:45:42;;;;;;;29.58;11.55;;;5.90;80.00;;;;;;5085874;28;20131;-79
2021/12/20 09:48:08;;;;;;;25.27;11.25;;;5.90;80.40;;;;;;5039601;28;20055;-80
2021/12/20 09:50:35;;;;;;;28.13;11.13;;;5.90;80.60;;;;;;5039876;28;20032;-80
2021/12/20 09:53:04;;;;;;;30.95;11.80;;;6.10;80.00;;;;;;5057696;28;20398;-80
2021/12/20 09:55:31;;;;;;;23.23;10.57;;;6.10;79.90;;;;;;5055845;28;20068;-79
2021/12/20 09:58:00;;;;;;;25.55;11.27;;;6.10;79.80;;;;;;5056164;28;20025;-79
2021/12/20 10:00:25;;;;;;;28.05;11.65;;;6.30;79.50;;;;;;5057532;28;20036;-79
2021/12/20 10:02:51;;;;;;;24.08;11.57;;;6.20;79.70;;;;;;5057684;28;20029;-79
2021/12/20 10:05:19;;;;;;;25.55;12.23;;;6.20;80.00;;;;;;5072041;28;20033;-79
2021/12/20 10:07:51;;;;;;;25.85;11.25;;;6.20;79.80;;;;;;5059781;28;20035;-79
2021/12/20 10:10:42;;;;;;;25.45;12.18;;;6.10;79.60;;;;;;5059209;28;20125;-79
2021/12/20 10:13:23;;;;;;;25.90;11.13;;;6.10;79.80;;;;;;5063171;28;20048;-79
2021/12/20 10:15:48;;;;;;;27.95;10.73;;;6.20;79.40;;;;;;5077655;28;20028;-79
2021/12/20 10:18:14;;;;;;;23.70;11.73;;;6.10;79.50;;;;;;5040936;28;20380;-80
2021/12/20 10:20:41;;;;;;;22.73;10.43;;;6.20;79.60;;;;;;5086052;28;20055;-79
2021/12/20 10:23:29;;;;;;;26.80;11.55;;;6.20;79.40;;;;;;5057142;28;20024;-80
2021/12/20 10:26:04;;;;;;;26.67;11.95;;;6.00;79.50;;;;;;5056958;28;20029;-80
2021/12/20 10:28:35;;;;;;;22.77;10.88;;;6.10;79.60;;;;;;5056991;28;20037;-79
2021/12/20 10:31:07;;;;;;;22.55;9.98;;;6.10;79.40;;;;;;5058746;28;20025;-80
2021/12/20 10:33:33;;;;;;;24.58;10.63;;;6.10;79.10;;;;;;5055844;28;20060;-80
2021/12/20 10:36:12;;;;;;;25.00;11.52;;;6.10;79.50;;;;;;5038140;28;20414;-80
2021/12/20 10:38:40;;;;;;;26.08;12.48;;;6.20;79.50;;;;;;5038181;28;20044;-81
2021/12/20 10:41:19;;;;;;;29.00;13.05;;;6.10;79.40;;;;;;5058073;28;20021;-80
2021/12/20 10:43:53;;;;;;;25.48;12.70;;;6.20;79.60;;;;;;5057826;28;20067;-81
2021/12/20 10:46:23;;;;;;;21.45;10.50;;;6.20;79.70;;;;;;5055049;28;20028;-80
2021/12/20 10:49:05;;;;;;;;;;;6.20;79.30;;;;;;5057703;28;20021;-81
2021/12/20 10:51:34;;;;;;;22.48;10.48;;;6.20;79.40;;;;;;5055235;28;19905;-81
2021/12/20 10:54:03;;;;;;;22.65;11.48;;;6.20;79.10;;;;;;5055284;28;20059;-80
2021/12/20 10:56:31;;;;;;;25.13;11.55;;;6.30;79.40;;;;;;5039727;28;20387;-80
2021/12/20 10:59:00;;;;;;;28.92;13.77;;;6.40;79.00;;;;;;5054310;28;20021;-80
2021/12/20 11:04:10;;;;;;;22.23;11.00;;;6.50;78.60;;;;;;5067243;28;20044;-80
2021/12/20 11:06:56;;;;;;;20.35;9.73;;;6.50;78.50;;;;;;5075203;28;20024;-79
2021/12/20 11:09:23;;;;;;;21.20;9.75;;;6.30;78.40;;;;;;5074725;28;20032;-80
2021/12/20 11:12:20;;;;;;;25.63;11.65;;;6.30;78.90;;;;;;5075984;28;20016;-79
2021/12/20 11:14:49;;;;;;;20.02;10.10;;;6.40;78.90;;;;;;5044997;28;20048;-79
2021/12/20 11:17:18;;;;;;;21.40;12.30;;;6.30;78.50;;;;;;5038425;28;20056;-80
2021/12/20 11:19:46;;;;;;;33.05;13.98;;;6.30;78.70;;;;;;5053831;28;20724;-80
2021/12/20 11:22:14;;;;;;;29.98;14.57;;;6.40;78.50;;;;;;5096156;28;20092;-80
2021/12/20 11:24:39;;;;;;;25.05;11.60;;;6.40;78.60;;;;;;5077982;28;20031;-79
2021/12/20 11:27:09;;;;;;;23.23;13.93;;;6.40;78.70;;;;;;5072970;28;20033;-80
2021/12/20 11:29:37;;;;;;;23.53;13.70;;;6.30;78.90;;;;;;5055845;28;20045;-80
2021/12/20 11:32:04;;;;;;;24.52;12.48;;;6.30;79.10;;;;;;5038030;28;20287;-79
2021/12/20 11:34:30;;;;;;;25.40;14.00;;;6.20;79.50;;;;;;5060418;28;20063;-80
2021/12/20 11:36:57;;;;;;;30.38;14.82;;;6.30;79.20;;;;;;5075811;28;20029;-80
2021/12/20 11:39:24;;;;;;;25.50;12.75;;;6.40;79.20;;;;;;5075852;28;20021;-80
2021/12/20 11:41:49;;;;;;;29.45;13.82;;;6.50;78.90;;;;;;5063918;28;20021;-80
2021/12/20 11:44:18;;;;;;;18.15;9.63;;;6.60;78.80;;;;;;5068781;28;20017;-80
2021/12/20 11:46:58;;;;;;;29.42;12.00;;;6.60;78.20;;;;;;5075593;28;20103;-80
2021/12/20 11:49:24;;;;;;;21.02;9.63;;;6.60;78.30;;;;;;5053285;28;20072;-80
2021/12/20 11:51:56;;;;;;;24.45;12.80;;;6.60;77.80;;;;;;5054188;28;20211;-77
2021/12/20 11:54:45;;;;;;;26.70;12.13;;;6.30;78.10;;;;;;5051144;28;20024;-82
2021/12/20 11:57:34;;;;;;;16.90;10.38;;;6.50;78.50;;;;;;5055271;28;20127;-80
2021/12/20 12:00:22;;;;;;;21.13;11.47;;;6.30;78.40;;;;;;5037441;28;20230;-77
2021/12/20 12:02:55;;;;;;;21.92;11.88;;;6.30;79.20;;;;;;5036555;28;20267;-78
2021/12/20 12:05:37;;;;;;;20.85;10.00;;;6.30;78.80;;;;;;5067766;28;20028;-77
2021/12/20 12:08:24;;;;;;;19.38;9.80;;;6.40;78.80;;;;;;5075416;28;20092;-77
2021/12/20 12:10:57;;;;;;;18.73;9.02;;;6.50;78.50;;;;;;5069173;28;20041;-73
2021/12/20 12:13:26;;;;;;;20.23;9.60;;;6.40;78.10;;;;;;5040517;28;20033;-77
2021/12/20 12:16:01;;;;;;;24.95;12.20;;;6.30;78.40;;;;;;5061615;28;20025;-78
2021/12/20 12:18:47;;;;;;;26.17;9.63;;;6.30;78.80;;;;;;5051567;28;20332;-80
2021/12/20 12:21:31;;;;;;;23.65;12.57;;;6.30;78.90;;;;;;5070152;28;20067;-83
2021/12/20 12:23:57;;;;;;;22.95;12.57;;;6.20;78.90;;;;;;5043527;28;20025;-78
2021/12/20 12:26:41;;;;;;;20.67;10.30;;;6.30;79.10;;;;;;5054448;28;20039;-87
2021/12/20 12:29:18;;;;;;;27.92;12.20;;;6.30;79.10;;;;;;5044695;28;20013;-80
2021/12/20 12:32:00;;;;;;;28.88;12.27;;;6.40;79.10;;;;;;5050160;28;20078;-81
2021/12/20 12:34:47;;;;;;;21.80;10.60;;;6.50;78.70;;;;;;5066866;28;20013;-84
2021/12/20 12:37:23;;;;;;;29.35;12.68;;;6.50;78.20;;;;;;5056355;28;20051;-81
2021/12/20 12:39:50;;;;;;;23.52;11.13;;;6.60;78.30;;;;;;5071019;28;20538;-79
2021/12/20 12:42:15;;;;;;;28.15;11.75;;;6.60;78.10;;;;;;5058083;28;20013;-78
2021/12/20 12:44:50;;;;;;;30.25;13.18;;;6.60;78.30;;;;;;5044726;28;20073;-77
2021/12/20 12:47:32;;;;;;;25.98;13.82;;;6.70;77.90;;;;;;5074288;28;20062;-77
2021/12/20 12:49:58;;;;;;;25.23;13.45;;;6.60;78.10;;;;;;5053004;28;20021;-77
2021/12/20 12:52:24;;;;;;;31.00;14.98;;;6.50;77.70;;;;;;5054404;28;20111;-77
2021/12/20 12:54:58;;;;;;;27.88;11.70;;;6.50;78.00;;;;;;5073917;28;20052;-76
2021/12/20 12:57:24;;;;;;;22.05;11.70;;;6.40;78.00;;;;;;5072970;28;20016;-77
2021/12/20 12:59:50;;;;;;;15.48;7.95;;;6.50;78.10;;;;;;5069876;28;20036;-77
2021/12/20 13:02:28;;;;;;;28.33;13.68;;;6.40;78.10;;;;;;5066702;28;20025;-77
2021/12/20 13:05:06;;;;;;;22.65;10.95;;;6.30;78.70;;;;;;5056450;28;20136;-77
2021/12/20 13:07:41;;;;;;;31.05;14.75;;;6.30;78.80;;;;;;5054539;28;20025;-77
2021/12/20 13:10:11;;;;;;;23.48;12.05;;;6.50;78.40;;;;;;5040081;28;20028;-77
2021/12/20 13:12:46;;;;;;;25.30;10.82;;;6.40;78.00;;;;;;5042796;28;20028;-77
2021/12/20 13:17:55;;;;;;;24.42;11.80;;;6.60;78.00;;;;;;5065641;28;20577;-77
2021/12/20 13:20:35;;;;;;;27.88;13.77;;;6.60;77.30;;;;;;5063069;28;20055;-77
2021/12/20 13:23:04;;;;;;;27.33;12.30;;;6.70;77.50;;;;;;5057486;28;20021;-77
2021/12/20 13:25:36;;;;;;;25.35;12.57;;;6.70;77.30;;;;;;5040763;28;20085;-77
2021/12/20 13:28:03;;;;;;;20.58;12.10;;;6.70;77.70;;;;;;5049245;28;20513;-77
2021/12/20 13:30:36;;;;;;;24.60;12.73;;;6.70;77.30;;;;;;5060363;28;20021;-78
2021/12/20 13:33:01;;;;;;;26.52;12.32;;;6.60;77.60;;;;;;5072432;28;20025;-77
2021/12/20 13:35:29;;;;;;;25.00;12.73;;;6.70;77.50;;;;;;5050760;28;20060;-78
2021/12/20 13:38:18;;;;;;;32.08;15.82;;;6.70;77.40;;;;;;5066375;28;20036;-78
2021/12/20 13:40:51;;;;;;;22.77;10.60;;;6.70;77.50;;;;;;5068663;28;20505;-78
2021/12/20 13:43:30;;;;;;;28.48;13.63;;;6.60;77.40;;;;;;5056267;28;20033;-77
2021/12/20 13:46:11;;;;;;;27.02;11.90;;;6.60;77.50;;;;;;5073979;28;20033;-81
2021/12/20 13:48:59;;;;;;;22.40;11.23;;;6.50;77.60;;;;;;5050791;28;20024;-78
2021/12/20 13:51:31;;;;;;;35.60;15.68;;;6.50;77.70;;;;;;5072316;28;20116;-85
2021/12/20 13:53:57;;;;;;;25.15;12.07;;;6.40;77.70;;;;;;5054866;28;20470;-85
2021/12/20 13:56:25;;;;;;;27.27;13.27;;;6.40;77.70;;;;;;5039320;28;20068;-84
2021/12/20 13:58:51;;;;;;;29.25;14.70;;;6.40;77.80;;;;;;5056724;28;20325;-84
2021/12/20 14:01:22;;;;;;;27.30;12.05;;;6.40;78.10;;;;;;5067834;28;20112;-88
2021/12/20 14:03:47;;;;;;;;;;;6.40;78.20;;;;;;5039908;28;20429;-85
2021/12/20 14:06:41;;;;;;;26.30;12.23;;;6.60;78.40;;;;;;5059200;28;19912;-80
2021/12/20 14:09:20;;;;;;;28.60;13.23;;;6.70;77.80;;;;;;5050970;28;20494;-85
2021/12/20 14:11:46;;;;;;;22.90;12.10;;;6.70;77.30;;;;;;5060882;28;20040;-84
2021/12/20 14:14:12;;;;;;;28.60;12.90;;;6.50;77.20;;;;;;5064890;28;20025;-84